Airport ID:CYTF
Update Time (UTC):29/05/2020 15:23
Wind Speed (Knots):13
Wind Direction (Magnetic):260
Temperature (°C):26
Dew Point (°C):18.2
Humidity (%):62
Altimeter (inHg):29.69
Density Altitude (Feet):02400
Visibility (Miles):6
Clouds (Hundreds of feet):SCT035 BKN043 OVC048
Present Weather:
METAR:METAR CYTF 291530Z AUTO 24013KT 10SM SCT035 BKN043 OVC048 26/18 A2968

The data displayed is for advisory purposes only and is not to be used for flight planning or operations.

This page is not automatically refreshed. Reload the page to see current data.